sensor_id;sensor_type;location;lat;lon;timestamp;P1;durP1;ratioP1;P2;durP2;ratioP2
5167;SDS011;2603;48.918;8.980;2024-02-16T00:00:57;14.20;;;4.00;;
5167;SDS011;2603;48.918;8.980;2024-02-16T00:03:25;11.97;;;5.40;;
5167;SDS011;2603;48.918;8.980;2024-02-16T00:05:51;16.47;;;4.43;;
5167;SDS011;2603;48.918;8.980;2024-02-16T00:08:18;10.43;;;4.90;;
5167;SDS011;2603;48.918;8.980;2024-02-16T00:10:45;9.73;;;5.07;;
5167;SDS011;2603;48.918;8.980;2024-02-16T00:13:11;12.27;;;4.67;;
5167;SDS011;2603;48.918;8.980;2024-02-16T00:15:39;9.57;;;4.50;;
5167;SDS011;2603;48.918;8.980;2024-02-16T00:18:06;8.37;;;4.50;;
5167;SDS011;2603;48.918;8.980;2024-02-16T00:20:33;8.87;;;4.30;;
5167;SDS011;2603;48.918;8.980;2024-02-16T00:22:59;12.90;;;4.77;;
5167;SDS011;2603;48.918;8.980;2024-02-16T00:25:26;9.30;;;4.40;;
5167;SDS011;2603;48.918;8.980;2024-02-16T00:27:52;8.50;;;3.60;;
5167;SDS011;2603;48.918;8.980;2024-02-16T00:30:19;13.63;;;4.40;;
5167;SDS011;2603;48.918;8.980;2024-02-16T00:32:48;9.70;;;4.53;;
5167;SDS011;2603;48.918;8.980;2024-02-16T00:35:14;8.60;;;4.47;;
5167;SDS011;2603;48.918;8.980;2024-02-16T00:37:42;9.40;;;4.47;;
5167;SDS011;2603;48.918;8.980;2024-02-16T00:40:11;8.60;;;4.10;;
5167;SDS011;2603;48.918;8.980;2024-02-16T00:42:38;11.00;;;4.47;;
5167;SDS011;2603;48.918;8.980;2024-02-16T00:45:05;7.70;;;4.37;;
5167;SDS011;2603;48.918;8.980;2024-02-16T00:47:33;5.83;;;4.10;;
5167;SDS011;2603;48.918;8.980;2024-02-16T00:50:01;8.53;;;3.97;;
5167;SDS011;2603;48.918;8.980;2024-02-16T00:52:30;11.90;;;4.47;;
5167;SDS011;2603;48.918;8.980;2024-02-16T00:54:56;7.97;;;3.87;;
5167;SDS011;2603;48.918;8.980;2024-02-16T00:57:23;10.90;;;5.53;;
5167;SDS011;2603;48.918;8.980;2024-02-16T00:59:49;8.70;;;3.73;;
5167;SDS011;2603;48.918;8.980;2024-02-16T01:02:16;9.83;;;4.53;;
5167;SDS011;2603;48.918;8.980;2024-02-16T01:04:42;10.20;;;4.50;;
5167;SDS011;2603;48.918;8.980;2024-02-16T01:07:10;8.17;;;4.90;;
5167;SDS011;2603;48.918;8.980;2024-02-16T01:09:37;8.33;;;3.80;;
5167;SDS011;2603;48.918;8.980;2024-02-16T01:12:03;10.63;;;5.17;;
5167;SDS011;2603;48.918;8.980;2024-02-16T01:14:30;7.20;;;3.87;;
5167;SDS011;2603;48.918;8.980;2024-02-16T01:16:56;9.60;;;4.40;;
5167;SDS011;2603;48.918;8.980;2024-02-16T01:19:23;6.73;;;4.30;;
5167;SDS011;2603;48.918;8.980;2024-02-16T01:21:49;8.57;;;5.03;;
5167;SDS011;2603;48.918;8.980;2024-02-16T01:24:19;13.27;;;4.67;;
5167;SDS011;2603;48.918;8.980;2024-02-16T01:26:46;8.53;;;4.13;;
5167;SDS011;2603;48.918;8.980;2024-02-16T01:29:12;10.30;;;3.80;;
5167;SDS011;2603;48.918;8.980;2024-02-16T01:31:38;7.63;;;4.53;;
5167;SDS011;2603;48.918;8.980;2024-02-16T01:34:05;12.00;;;4.80;;
5167;SDS011;2603;48.918;8.980;2024-02-16T01:36:32;12.60;;;4.97;;
5167;SDS011;2603;48.918;8.980;2024-02-16T01:38:58;6.37;;;3.67;;
5167;SDS011;2603;48.918;8.980;2024-02-16T01:41:26;9.83;;;4.53;;
5167;SDS011;2603;48.918;8.980;2024-02-16T01:43:53;9.13;;;3.93;;
5167;SDS011;2603;48.918;8.980;2024-02-16T01:46:19;6.13;;;3.57;;
5167;SDS011;2603;48.918;8.980;2024-02-16T01:48:47;6.00;;;3.17;;
5167;SDS011;2603;48.918;8.980;2024-02-16T01:51:15;5.50;;;3.27;;
5167;SDS011;2603;48.918;8.980;2024-02-16T01:53:41;9.90;;;4.10;;
5167;SDS011;2603;48.918;8.980;2024-02-16T01:56:08;9.17;;;4.13;;
5167;SDS011;2603;48.918;8.980;2024-02-16T01:58:36;7.83;;;4.03;;
5167;SDS011;2603;48.918;8.980;2024-02-16T02:01:03;8.27;;;3.63;;
5167;SDS011;2603;48.918;8.980;2024-02-16T02:03:29;9.87;;;5.00;;
5167;SDS011;2603;48.918;8.980;2024-02-16T02:05:56;12.73;;;4.00;;
5167;SDS011;2603;48.918;8.980;2024-02-16T02:08:23;5.90;;;3.63;;
5167;SDS011;2603;48.918;8.980;2024-02-16T02:10:51;6.43;;;3.60;;
5167;SDS011;2603;48.918;8.980;2024-02-16T02:13:17;8.73;;;3.87;;
5167;SDS011;2603;48.918;8.980;2024-02-16T02:15:46;7.23;;;4.03;;
5167;SDS011;2603;48.918;8.980;2024-02-16T02:18:12;8.60;;;3.83;;
5167;SDS011;2603;48.918;8.980;2024-02-16T02:20:39;5.60;;;3.20;;
5167;SDS011;2603;48.918;8.980;2024-02-16T02:23:07;8.50;;;3.73;;
5167;SDS011;2603;48.918;8.980;2024-02-16T02:25:33;9.70;;;3.70;;
5167;SDS011;2603;48.918;8.980;2024-02-16T02:28:01;11.07;;;3.90;;
5167;SDS011;2603;48.918;8.980;2024-02-16T02:30:28;6.43;;;3.27;;
5167;SDS011;2603;48.918;8.980;2024-02-16T02:32:55;5.23;;;2.93;;
5167;SDS011;2603;48.918;8.980;2024-02-16T02:35:21;7.23;;;4.13;;
5167;SDS011;2603;48.918;8.980;2024-02-16T02:37:48;8.37;;;3.63;;
5167;SDS011;2603;48.918;8.980;2024-02-16T02:40:16;8.90;;;3.63;;
5167;SDS011;2603;48.918;8.980;2024-02-16T02:42:42;11.83;;;4.00;;
5167;SDS011;2603;48.918;8.980;2024-02-16T02:45:09;8.70;;;3.90;;
5167;SDS011;2603;48.918;8.980;2024-02-16T02:47:36;6.10;;;3.60;;
5167;SDS011;2603;48.918;8.980;2024-02-16T02:50:03;7.07;;;3.43;;
5167;SDS011;2603;48.918;8.980;2024-02-16T02:52:30;10.40;;;4.17;;
5167;SDS011;2603;48.918;8.980;2024-02-16T02:54:56;8.53;;;3.80;;
5167;SDS011;2603;48.918;8.980;2024-02-16T02:57:24;8.30;;;4.20;;
5167;SDS011;2603;48.918;8.980;2024-02-16T02:59:51;7.03;;;4.33;;
5167;SDS011;2603;48.918;8.980;2024-02-16T03:02:17;10.47;;;4.77;;
5167;SDS011;2603;48.918;8.980;2024-02-16T03:04:44;6.30;;;4.47;;
5167;SDS011;2603;48.918;8.980;2024-02-16T03:07:10;6.17;;;3.10;;
5167;SDS011;2603;48.918;8.980;2024-02-16T03:09:37;7.30;;;3.97;;
5167;SDS011;2603;48.918;8.980;2024-02-16T03:12:04;11.63;;;3.87;;
5167;SDS011;2603;48.918;8.980;2024-02-16T03:14:32;8.33;;;3.80;;
5167;SDS011;2603;48.918;8.980;2024-02-16T03:16:59;6.33;;;3.77;;
5167;SDS011;2603;48.918;8.980;2024-02-16T03:19:25;12.40;;;4.37;;
5167;SDS011;2603;48.918;8.980;2024-02-16T03:21:52;7.03;;;3.90;;
5167;SDS011;2603;48.918;8.980;2024-02-16T03:24:18;10.23;;;4.00;;
5167;SDS011;2603;48.918;8.980;2024-02-16T03:26:45;7.10;;;3.60;;
5167;SDS011;2603;48.918;8.980;2024-02-16T03:29:12;5.90;;;3.90;;
5167;SDS011;2603;48.918;8.980;2024-02-16T03:31:40;5.97;;;3.50;;
5167;SDS011;2603;48.918;8.980;2024-02-16T03:34:06;5.57;;;3.60;;
5167;SDS011;2603;48.918;8.980;2024-02-16T03:36:33;5.80;;;3.80;;
5167;SDS011;2603;48.918;8.980;2024-02-16T03:39:00;10.10;;;4.10;;
5167;SDS011;2603;48.918;8.980;2024-02-16T03:41:26;6.33;;;3.87;;
5167;SDS011;2603;48.918;8.980;2024-02-16T03:43:53;8.83;;;3.80;;
5167;SDS011;2603;48.918;8.980;2024-02-16T03:46:19;10.37;;;5.27;;
5167;SDS011;2603;48.918;8.980;2024-02-16T03:48:47;8.17;;;3.90;;
5167;SDS011;2603;48.918;8.980;2024-02-16T03:51:14;8.00;;;4.43;;
5167;SDS011;2603;48.918;8.980;2024-02-16T03:53:40;7.57;;;3.07;;
5167;SDS011;2603;48.918;8.980;2024-02-16T03:56:07;5.80;;;3.33;;
5167;SDS011;2603;48.918;8.980;2024-02-16T03:58:33;6.80;;;3.70;;
5167;SDS011;2603;48.918;8.980;2024-02-16T04:01:00;8.30;;;3.77;;
5167;SDS011;2603;48.918;8.980;2024-02-16T04:03:26;9.33;;;3.90;;
5167;SDS011;2603;48.918;8.980;2024-02-16T04:05:54;6.30;;;4.00;;
5167;SDS011;2603;48.918;8.980;2024-02-16T04:08:21;11.83;;;4.37;;
5167;SDS011;2603;48.918;8.980;2024-02-16T04:10:47;8.17;;;3.97;;
5167;SDS011;2603;48.918;8.980;2024-02-16T04:13:14;8.90;;;4.70;;
5167;SDS011;2603;48.918;8.980;2024-02-16T04:15:40;7.47;;;4.30;;
5167;SDS011;2603;48.918;8.980;2024-02-16T04:18:07;11.30;;;4.70;;
5167;SDS011;2603;48.918;8.980;2024-02-16T04:20:34;9.97;;;4.10;;
5167;SDS011;2603;48.918;8.980;2024-02-16T04:23:02;12.07;;;4.63;;
5167;SDS011;2603;48.918;8.980;2024-02-16T04:25:29;9.00;;;4.03;;
5167;SDS011;2603;48.918;8.980;2024-02-16T04:27:55;9.83;;;3.70;;
5167;SDS011;2603;48.918;8.980;2024-02-16T04:30:22;8.03;;;4.40;;
5167;SDS011;2603;48.918;8.980;2024-02-16T04:32:48;7.83;;;4.50;;
5167;SDS011;2603;48.918;8.980;2024-02-16T04:35:15;13.57;;;4.87;;
5167;SDS011;2603;48.918;8.980;2024-02-16T04:37:41;6.03;;;3.43;;
5167;SDS011;2603;48.918;8.980;2024-02-16T04:40:10;7.17;;;4.13;;
5167;SDS011;2603;48.918;8.980;2024-02-16T04:42:38;14.50;;;4.70;;
5167;SDS011;2603;48.918;8.980;2024-02-16T04:45:06;7.20;;;3.70;;
5167;SDS011;2603;48.918;8.980;2024-02-16T04:47:33;8.63;;;4.97;;
5167;SDS011;2603;48.918;8.980;2024-02-16T04:50:00;10.63;;;3.60;;
5167;SDS011;2603;48.918;8.980;2024-02-16T04:52:26;7.87;;;4.47;;
5167;SDS011;2603;48.918;8.980;2024-02-16T04:54:53;10.80;;;4.40;;
5167;SDS011;2603;48.918;8.980;2024-02-16T04:57:21;8.33;;;4.43;;
5167;SDS011;2603;48.918;8.980;2024-02-16T04:59:47;7.70;;;3.97;;
5167;SDS011;2603;48.918;8.980;2024-02-16T05:02:13;9.93;;;5.20;;
5167;SDS011;2603;48.918;8.980;2024-02-16T05:04:40;10.30;;;4.87;;
5167;SDS011;2603;48.918;8.980;2024-02-16T05:07:06;6.97;;;3.80;;
5167;SDS011;2603;48.918;8.980;2024-02-16T05:09:33;10.60;;;4.43;;
5167;SDS011;2603;48.918;8.980;2024-02-16T05:11:59;15.53;;;4.00;;
5167;SDS011;2603;48.918;8.980;2024-02-16T05:14:27;12.53;;;5.50;;
5167;SDS011;2603;48.918;8.980;2024-02-16T05:16:54;13.67;;;5.97;;
5167;SDS011;2603;48.918;8.980;2024-02-16T05:19:20;9.63;;;4.87;;
5167;SDS011;2603;48.918;8.980;2024-02-16T05:21:47;32.27;;;6.00;;
5167;SDS011;2603;48.918;8.980;2024-02-16T05:24:13;9.53;;;3.93;;
5167;SDS011;2603;48.918;8.980;2024-02-16T05:26:39;7.90;;;4.20;;
5167;SDS011;2603;48.918;8.980;2024-02-16T05:29:06;7.53;;;3.97;;
5167;SDS011;2603;48.918;8.980;2024-02-16T05:31:34;9.73;;;4.60;;
5167;SDS011;2603;48.918;8.980;2024-02-16T05:34:00;14.50;;;4.57;;
5167;SDS011;2603;48.918;8.980;2024-02-16T05:36:27;7.57;;;4.57;;
5167;SDS011;2603;48.918;8.980;2024-02-16T05:39:00;11.53;;;5.40;;
5167;SDS011;2603;48.918;8.980;2024-02-16T05:41:34;11.17;;;4.33;;
5167;SDS011;2603;48.918;8.980;2024-02-16T05:44:02;23.73;;;4.73;;
5167;SDS011;2603;48.918;8.980;2024-02-16T05:46:29;10.13;;;4.70;;
5167;SDS011;2603;48.918;8.980;2024-02-16T05:48:57;6.43;;;4.40;;
5167;SDS011;2603;48.918;8.980;2024-02-16T05:51:24;8.10;;;5.50;;
5167;SDS011;2603;48.918;8.980;2024-02-16T05:53:50;8.67;;;4.33;;
5167;SDS011;2603;48.918;8.980;2024-02-16T05:56:17;7.17;;;4.63;;
5167;SDS011;2603;48.918;8.980;2024-02-16T05:58:43;7.83;;;5.10;;
5167;SDS011;2603;48.918;8.980;2024-02-16T06:01:10;6.57;;;3.83;;
5167;SDS011;2603;48.918;8.980;2024-02-16T06:03:37;12.73;;;3.80;;
5167;SDS011;2603;48.918;8.980;2024-02-16T06:06:05;6.97;;;3.40;;
5167;SDS011;2603;48.918;8.980;2024-02-16T06:08:33;5.90;;;3.40;;
5167;SDS011;2603;48.918;8.980;2024-02-16T06:10:59;11.20;;;4.87;;
5167;SDS011;2603;48.918;8.980;2024-02-16T06:13:27;10.63;;;4.90;;
5167;SDS011;2603;48.918;8.980;2024-02-16T06:15:54;7.40;;;4.30;;
5167;SDS011;2603;48.918;8.980;2024-02-16T06:18:22;6.90;;;4.07;;
5167;SDS011;2603;48.918;8.980;2024-02-16T06:20:48;7.00;;;4.30;;
5167;SDS011;2603;48.918;8.980;2024-02-16T06:23:16;10.83;;;4.37;;
5167;SDS011;2603;48.918;8.980;2024-02-16T06:25:43;7.43;;;5.10;;
5167;SDS011;2603;48.918;8.980;2024-02-16T06:28:09;15.60;;;5.90;;
5167;SDS011;2603;48.918;8.980;2024-02-16T06:30:36;10.27;;;5.30;;
5167;SDS011;2603;48.918;8.980;2024-02-16T06:33:02;9.07;;;4.20;;
5167;SDS011;2603;48.918;8.980;2024-02-16T06:35:29;15.20;;;4.40;;
5167;SDS011;2603;48.918;8.980;2024-02-16T06:37:56;7.40;;;3.97;;
5167;SDS011;2603;48.918;8.980;2024-02-16T06:40:23;12.60;;;4.43;;
5167;SDS011;2603;48.918;8.980;2024-02-16T06:42:51;8.37;;;3.77;;
5167;SDS011;2603;48.918;8.980;2024-02-16T06:45:17;8.67;;;4.90;;
5167;SDS011;2603;48.918;8.980;2024-02-16T06:47:45;5.80;;;3.17;;
5167;SDS011;2603;48.918;8.980;2024-02-16T06:50:11;7.27;;;3.60;;
5167;SDS011;2603;48.918;8.980;2024-02-16T06:52:38;10.37;;;4.70;;
5167;SDS011;2603;48.918;8.980;2024-02-16T06:55:04;8.13;;;4.63;;
5167;SDS011;2603;48.918;8.980;2024-02-16T06:57:33;9.37;;;5.10;;
5167;SDS011;2603;48.918;8.980;2024-02-16T06:59:59;12.03;;;5.70;;
5167;SDS011;2603;48.918;8.980;2024-02-16T07:02:28;20.00;;;6.27;;
5167;SDS011;2603;48.918;8.980;2024-02-16T07:04:54;11.50;;;5.60;;
5167;SDS011;2603;48.918;8.980;2024-02-16T07:07:21;10.97;;;5.43;;
5167;SDS011;2603;48.918;8.980;2024-02-16T07:09:47;9.77;;;5.20;;
5167;SDS011;2603;48.918;8.980;2024-02-16T07:12:13;12.10;;;5.33;;
5167;SDS011;2603;48.918;8.980;2024-02-16T07:14:41;6.27;;;3.87;;
5167;SDS011;2603;48.918;8.980;2024-02-16T07:17:09;11.30;;;4.80;;
5167;SDS011;2603;48.918;8.980;2024-02-16T07:19:35;7.23;;;4.53;;
5167;SDS011;2603;48.918;8.980;2024-02-16T07:22:02;9.57;;;4.10;;
5167;SDS011;2603;48.918;8.980;2024-02-16T07:24:31;7.33;;;3.40;;
5167;SDS011;2603;48.918;8.980;2024-02-16T07:26:58;7.77;;;3.77;;
5167;SDS011;2603;48.918;8.980;2024-02-16T07:29:24;5.57;;;3.73;;
5167;SDS011;2603;48.918;8.980;2024-02-16T07:31:53;7.13;;;3.60;;
5167;SDS011;2603;48.918;8.980;2024-02-16T07:34:21;8.20;;;4.53;;
5167;SDS011;2603;48.918;8.980;2024-02-16T07:36:48;13.00;;;4.87;;
5167;SDS011;2603;48.918;8.980;2024-02-16T07:39:14;16.10;;;5.17;;
5167;SDS011;2603;48.918;8.980;2024-02-16T07:41:41;23.60;;;9.13;;
5167;SDS011;2603;48.918;8.980;2024-02-16T07:44:07;27.57;;;12.40;;
5167;SDS011;2603;48.918;8.980;2024-02-16T07:46:39;29.57;;;13.30;;
5167;SDS011;2603;48.918;8.980;2024-02-16T07:49:07;21.43;;;8.00;;
5167;SDS011;2603;48.918;8.980;2024-02-16T07:51:35;16.30;;;7.30;;
5167;SDS011;2603;48.918;8.980;2024-02-16T07:54:02;13.30;;;4.30;;
5167;SDS011;2603;48.918;8.980;2024-02-16T07:56:29;7.10;;;3.80;;
5167;SDS011;2603;48.918;8.980;2024-02-16T07:58:56;6.77;;;3.03;;
5167;SDS011;2603;48.918;8.980;2024-02-16T08:01:23;7.03;;;3.73;;
5167;SDS011;2603;48.918;8.980;2024-02-16T08:03:49;7.73;;;4.10;;
5167;SDS011;2603;48.918;8.980;2024-02-16T08:06:17;6.17;;;3.00;;
5167;SDS011;2603;48.918;8.980;2024-02-16T08:08:46;6.30;;;2.80;;
5167;SDS011;2603;48.918;8.980;2024-02-16T08:11:12;6.30;;;3.13;;
5167;SDS011;2603;48.918;8.980;2024-02-16T08:13:39;21.93;;;10.63;;
5167;SDS011;2603;48.918;8.980;2024-02-16T08:16:05;10.20;;;5.60;;
5167;SDS011;2603;48.918;8.980;2024-02-16T08:18:32;10.60;;;5.43;;
5167;SDS011;2603;48.918;8.980;2024-02-16T08:20:59;15.07;;;5.53;;
5167;SDS011;2603;48.918;8.980;2024-02-16T08:23:27;7.50;;;3.93;;
5167;SDS011;2603;48.918;8.980;2024-02-16T08:25:53;9.30;;;4.03;;
5167;SDS011;2603;48.918;8.980;2024-02-16T08:28:20;5.90;;;3.97;;
5167;SDS011;2603;48.918;8.980;2024-02-16T08:30:46;6.10;;;3.00;;
5167;SDS011;2603;48.918;8.980;2024-02-16T08:33:13;7.37;;;3.37;;
5167;SDS011;2603;48.918;8.980;2024-02-16T08:35:39;5.30;;;3.53;;
5167;SDS011;2603;48.918;8.980;2024-02-16T08:38:06;5.33;;;2.90;;
5167;SDS011;2603;48.918;8.980;2024-02-16T08:40:36;4.83;;;3.03;;
5167;SDS011;2603;48.918;8.980;2024-02-16T08:43:03;6.43;;;4.03;;
5167;SDS011;2603;48.918;8.980;2024-02-16T08:45:30;6.10;;;4.03;;
5167;SDS011;2603;48.918;8.980;2024-02-16T08:47:57;11.33;;;6.00;;
5167;SDS011;2603;48.918;8.980;2024-02-16T08:50:25;9.30;;;5.47;;
5167;SDS011;2603;48.918;8.980;2024-02-16T08:52:51;12.03;;;5.37;;
5167;SDS011;2603;48.918;8.980;2024-02-16T08:55:18;11.93;;;6.43;;
5167;SDS011;2603;48.918;8.980;2024-02-16T08:57:46;13.40;;;7.80;;
5167;SDS011;2603;48.918;8.980;2024-02-16T09:00:13;8.23;;;5.00;;
5167;SDS011;2603;48.918;8.980;2024-02-16T09:02:41;11.03;;;5.40;;
5167;SDS011;2603;48.918;8.980;2024-02-16T09:05:07;13.03;;;5.50;;
5167;SDS011;2603;48.918;8.980;2024-02-16T09:07:34;10.30;;;5.00;;
5167;SDS011;2603;48.918;8.980;2024-02-16T09:10:01;6.87;;;4.10;;
5167;SDS011;2603;48.918;8.980;2024-02-16T09:12:29;7.30;;;4.50;;
5167;SDS011;2603;48.918;8.980;2024-02-16T09:14:57;15.90;;;5.70;;
5167;SDS011;2603;48.918;8.980;2024-02-16T09:17:23;27.10;;;7.63;;
5167;SDS011;2603;48.918;8.980;2024-02-16T09:19:50;24.77;;;12.70;;
5167;SDS011;2603;48.918;8.980;2024-02-16T09:22:17;27.03;;;7.10;;
5167;SDS011;2603;48.918;8.980;2024-02-16T09:24:43;12.63;;;5.60;;
5167;SDS011;2603;48.918;8.980;2024-02-16T09:27:12;8.43;;;5.10;;
5167;SDS011;2603;48.918;8.980;2024-02-16T09:29:38;5.77;;;3.70;;
5167;SDS011;2603;48.918;8.980;2024-02-16T09:32:06;7.63;;;3.80;;
5167;SDS011;2603;48.918;8.980;2024-02-16T09:34:33;9.03;;;2.90;;
5167;SDS011;2603;48.918;8.980;2024-02-16T09:36:59;5.30;;;3.03;;
5167;SDS011;2603;48.918;8.980;2024-02-16T09:39:26;6.10;;;3.17;;
5167;SDS011;2603;48.918;8.980;2024-02-16T09:41:54;4.20;;;2.30;;
5167;SDS011;2603;48.918;8.980;2024-02-16T09:44:20;4.00;;;2.73;;
5167;SDS011;2603;48.918;8.980;2024-02-16T09:46:48;3.30;;;2.37;;
5167;SDS011;2603;48.918;8.980;2024-02-16T09:49:16;4.10;;;2.67;;
5167;SDS011;2603;48.918;8.980;2024-02-16T09:51:42;4.20;;;2.40;;
5167;SDS011;2603;48.918;8.980;2024-02-16T09:54:09;3.77;;;2.23;;
5167;SDS011;2603;48.918;8.980;2024-02-16T09:56:36;4.43;;;2.50;;
5167;SDS011;2603;48.918;8.980;2024-02-16T09:59:03;9.70;;;2.17;;
5167;SDS011;2603;48.918;8.980;2024-02-16T10:01:30;4.90;;;2.40;;
5167;SDS011;2603;48.918;8.980;2024-02-16T10:03:59;6.87;;;3.23;;
5167;SDS011;2603;48.918;8.980;2024-02-16T10:06:32;6.83;;;2.63;;
5167;SDS011;2603;48.918;8.980;2024-02-16T10:08:59;6.27;;;3.17;;
5167;SDS011;2603;48.918;8.980;2024-02-16T10:11:31;6.20;;;2.87;;
5167;SDS011;2603;48.918;8.980;2024-02-16T10:13:58;9.77;;;3.10;;
5167;SDS011;2603;48.918;8.980;2024-02-16T10:16:26;10.73;;;3.37;;
5167;SDS011;2603;48.918;8.980;2024-02-16T10:18:54;7.13;;;3.87;;
5167;SDS011;2603;48.918;8.980;2024-02-16T10:21:24;10.70;;;3.10;;
5167;SDS011;2603;48.918;8.980;2024-02-16T10:24:01;8.30;;;3.67;;
5167;SDS011;2603;48.918;8.980;2024-02-16T10:26:33;8.97;;;3.50;;
5167;SDS011;2603;48.918;8.980;2024-02-16T10:29:02;6.80;;;3.30;;
5167;SDS011;2603;48.918;8.980;2024-02-16T10:31:30;10.13;;;3.83;;
5167;SDS011;2603;48.918;8.980;2024-02-16T10:33:58;18.67;;;3.50;;
5167;SDS011;2603;48.918;8.980;2024-02-16T10:36:27;7.67;;;3.60;;
5167;SDS011;2603;48.918;8.980;2024-02-16T10:38:54;9.10;;;3.47;;
5167;SDS011;2603;48.918;8.980;2024-02-16T10:41:23;11.03;;;4.40;;
5167;SDS011;2603;48.918;8.980;2024-02-16T10:43:53;11.20;;;3.77;;
5167;SDS011;2603;48.918;8.980;2024-02-16T10:46:21;9.93;;;3.40;;
5167;SDS011;2603;48.918;8.980;2024-02-16T10:48:48;14.27;;;3.90;;
5167;SDS011;2603;48.918;8.980;2024-02-16T10:51:15;17.87;;;4.53;;
5167;SDS011;2603;48.918;8.980;2024-02-16T10:53:44;12.20;;;3.47;;
5167;SDS011;2603;48.918;8.980;2024-02-16T10:56:12;11.03;;;3.47;;
5167;SDS011;2603;48.918;8.980;2024-02-16T10:58:40;21.70;;;4.27;;
5167;SDS011;2603;48.918;8.980;2024-02-16T11:01:07;22.40;;;4.10;;
5167;SDS011;2603;48.918;8.980;2024-02-16T11:03:37;12.33;;;4.30;;
5167;SDS011;2603;48.918;8.980;2024-02-16T11:06:11;9.70;;;3.73;;
5167;SDS011;2603;48.918;8.980;2024-02-16T11:08:40;8.10;;;3.47;;
5167;SDS011;2603;48.918;8.980;2024-02-16T11:11:07;10.20;;;4.43;;
5167;SDS011;2603;48.918;8.980;2024-02-16T11:13:36;10.00;;;3.77;;
5167;SDS011;2603;48.918;8.980;2024-02-16T11:16:06;9.83;;;4.47;;
5167;SDS011;2603;48.918;8.980;2024-02-16T11:18:37;9.60;;;4.80;;
5167;SDS011;2603;48.918;8.980;2024-02-16T11:21:04;17.53;;;4.80;;
5167;SDS011;2603;48.918;8.980;2024-02-16T11:23:32;11.50;;;4.30;;
5167;SDS011;2603;48.918;8.980;2024-02-16T11:26:00;8.23;;;3.50;;
5167;SDS011;2603;48.918;8.980;2024-02-16T11:28:28;12.07;;;3.77;;
5167;SDS011;2603;48.918;8.980;2024-02-16T11:30:57;10.60;;;3.40;;
5167;SDS011;2603;48.918;8.980;2024-02-16T11:33:25;9.83;;;4.27;;
5167;SDS011;2603;48.918;8.980;2024-02-16T11:35:53;6.43;;;3.63;;
5167;SDS011;2603;48.918;8.980;2024-02-16T11:38:20;8.20;;;3.60;;
5167;SDS011;2603;48.918;8.980;2024-02-16T11:40:52;25.83;;;13.93;;
5167;SDS011;2603;48.918;8.980;2024-02-16T11:43:20;20.60;;;8.83;;
5167;SDS011;2603;48.918;8.980;2024-02-16T11:45:47;8.83;;;3.63;;
5167;SDS011;2603;48.918;8.980;2024-02-16T11:48:18;14.03;;;4.17;;
5167;SDS011;2603;48.918;8.980;2024-02-16T11:50:46;11.13;;;3.50;;
5167;SDS011;2603;48.918;8.980;2024-02-16T11:53:15;14.37;;;2.77;;
5167;SDS011;2603;48.918;8.980;2024-02-16T11:55:45;11.10;;;2.90;;
5167;SDS011;2603;48.918;8.980;2024-02-16T11:58:12;11.77;;;3.00;;
5167;SDS011;2603;48.918;8.980;2024-02-16T12:00:39;6.57;;;2.63;;
5167;SDS011;2603;48.918;8.980;2024-02-16T12:03:06;14.20;;;2.83;;
5167;SDS011;2603;48.918;8.980;2024-02-16T12:05:33;11.00;;;3.03;;
5167;SDS011;2603;48.918;8.980;2024-02-16T12:08:00;9.53;;;3.33;;
5167;SDS011;2603;48.918;8.980;2024-02-16T12:10:27;14.87;;;3.40;;
5167;SDS011;2603;48.918;8.980;2024-02-16T12:12:55;13.93;;;3.60;;
5167;SDS011;2603;48.918;8.980;2024-02-16T12:15:22;19.00;;;3.13;;
5167;SDS011;2603;48.918;8.980;2024-02-16T12:17:57;15.63;;;3.57;;
5167;SDS011;2603;48.918;8.980;2024-02-16T12:20:24;14.23;;;3.50;;
5167;SDS011;2603;48.918;8.980;2024-02-16T12:22:51;14.83;;;5.00;;
5167;SDS011;2603;48.918;8.980;2024-02-16T12:25:19;11.87;;;3.63;;
5167;SDS011;2603;48.918;8.980;2024-02-16T12:27:46;15.20;;;2.23;;
5167;SDS011;2603;48.918;8.980;2024-02-16T12:30:12;6.20;;;2.67;;
5167;SDS011;2603;48.918;8.980;2024-02-16T12:32:39;8.53;;;2.33;;
5167;SDS011;2603;48.918;8.980;2024-02-16T12:35:06;6.30;;;2.00;;
5167;SDS011;2603;48.918;8.980;2024-02-16T12:37:34;8.10;;;3.07;;
5167;SDS011;2603;48.918;8.980;2024-02-16T12:40:01;11.13;;;3.30;;
5167;SDS011;2603;48.918;8.980;2024-02-16T12:42:29;7.33;;;2.97;;
5167;SDS011;2603;48.918;8.980;2024-02-16T12:44:55;11.53;;;5.00;;
5167;SDS011;2603;48.918;8.980;2024-02-16T12:47:22;4.60;;;1.70;;
5167;SDS011;2603;48.918;8.980;2024-02-16T12:49:48;7.83;;;1.73;;
5167;SDS011;2603;48.918;8.980;2024-02-16T12:52:19;6.57;;;2.60;;
5167;SDS011;2603;48.918;8.980;2024-02-16T12:54:47;9.17;;;2.30;;
5167;SDS011;2603;48.918;8.980;2024-02-16T12:57:14;3.73;;;1.73;;
5167;SDS011;2603;48.918;8.980;2024-02-16T12:59:41;12.23;;;2.33;;
5167;SDS011;2603;48.918;8.980;2024-02-16T13:02:08;3.63;;;1.90;;
5167;SDS011;2603;48.918;8.980;2024-02-16T13:04:34;6.30;;;1.60;;
5167;SDS011;2603;48.918;8.980;2024-02-16T13:07:01;6.10;;;1.20;;
5167;SDS011;2603;48.918;8.980;2024-02-16T13:09:28;8.43;;;2.27;;
5167;SDS011;2603;48.918;8.980;2024-02-16T13:11:54;7.43;;;2.77;;
5167;SDS011;2603;48.918;8.980;2024-02-16T13:14:21;9.20;;;2.77;;
5167;SDS011;2603;48.918;8.980;2024-02-16T13:16:49;5.23;;;1.87;;
5167;SDS011;2603;48.918;8.980;2024-02-16T13:19:15;8.03;;;2.07;;
5167;SDS011;2603;48.918;8.980;2024-02-16T13:21:43;6.23;;;2.10;;
5167;SDS011;2603;48.918;8.980;2024-02-16T13:24:10;7.43;;;2.20;;
5167;SDS011;2603;48.918;8.980;2024-02-16T13:26:36;6.23;;;2.00;;
5167;SDS011;2603;48.918;8.980;2024-02-16T13:29:03;9.97;;;2.00;;
5167;SDS011;2603;48.918;8.980;2024-02-16T13:31:30;5.10;;;1.50;;
5167;SDS011;2603;48.918;8.980;2024-02-16T13:33:58;9.53;;;2.47;;
5167;SDS011;2603;48.918;8.980;2024-02-16T13:36:25;8.90;;;1.77;;
5167;SDS011;2603;48.918;8.980;2024-02-16T13:38:52;6.00;;;1.43;;
5167;SDS011;2603;48.918;8.980;2024-02-16T13:41:19;11.03;;;1.90;;
5167;SDS011;2603;48.918;8.980;2024-02-16T13:43:46;7.80;;;2.30;;
5167;SDS011;2603;48.918;8.980;2024-02-16T13:46:13;7.37;;;2.20;;
5167;SDS011;2603;48.918;8.980;2024-02-16T13:48:39;10.60;;;2.80;;
5167;SDS011;2603;48.918;8.980;2024-02-16T13:51:08;6.73;;;1.70;;
5167;SDS011;2603;48.918;8.980;2024-02-16T13:53:34;4.87;;;1.80;;
5167;SDS011;2603;48.918;8.980;2024-02-16T13:56:01;9.07;;;2.37;;
5167;SDS011;2603;48.918;8.980;2024-02-16T13:58:29;4.80;;;1.73;;
5167;SDS011;2603;48.918;8.980;2024-02-16T14:00:56;4.43;;;1.73;;
5167;SDS011;2603;48.918;8.980;2024-02-16T14:03:22;8.43;;;1.97;;
5167;SDS011;2603;48.918;8.980;2024-02-16T14:05:49;8.53;;;1.93;;
5167;SDS011;2603;48.918;8.980;2024-02-16T14:08:17;7.80;;;2.03;;
5167;SDS011;2603;48.918;8.980;2024-02-16T14:10:44;5.90;;;1.80;;
5167;SDS011;2603;48.918;8.980;2024-02-16T14:13:10;9.07;;;1.90;;
5167;SDS011;2603;48.918;8.980;2024-02-16T14:15:37;4.10;;;1.87;;
5167;SDS011;2603;48.918;8.980;2024-02-16T14:18:03;7.57;;;2.00;;
5167;SDS011;2603;48.918;8.980;2024-02-16T14:20:32;9.13;;;1.67;;
5167;SDS011;2603;48.918;8.980;2024-02-16T14:22:58;4.40;;;1.90;;
5167;SDS011;2603;48.918;8.980;2024-02-16T14:25:28;2.37;;;1.20;;
5167;SDS011;2603;48.918;8.980;2024-02-16T14:27:54;9.47;;;1.43;;
5167;SDS011;2603;48.918;8.980;2024-02-16T14:30:21;5.37;;;1.97;;
5167;SDS011;2603;48.918;8.980;2024-02-16T14:32:47;5.40;;;1.87;;
5167;SDS011;2603;48.918;8.980;2024-02-16T14:35:14;7.33;;;1.70;;
5167;SDS011;2603;48.918;8.980;2024-02-16T14:37:40;6.07;;;2.60;;
5167;SDS011;2603;48.918;8.980;2024-02-16T14:40:07;4.33;;;1.80;;
5167;SDS011;2603;48.918;8.980;2024-02-16T14:42:38;6.50;;;1.57;;
5167;SDS011;2603;48.918;8.980;2024-02-16T14:45:05;4.17;;;1.70;;
5167;SDS011;2603;48.918;8.980;2024-02-16T14:47:34;5.00;;;1.60;;
5167;SDS011;2603;48.918;8.980;2024-02-16T14:50:01;5.37;;;1.80;;
5167;SDS011;2603;48.918;8.980;2024-02-16T14:52:28;7.03;;;1.77;;
5167;SDS011;2603;48.918;8.980;2024-02-16T14:54:55;4.17;;;1.47;;
5167;SDS011;2603;48.918;8.980;2024-02-16T14:57:21;5.73;;;1.90;;
5167;SDS011;2603;48.918;8.980;2024-02-16T14:59:51;4.40;;;1.90;;
5167;SDS011;2603;48.918;8.980;2024-02-16T15:02:20;6.57;;;1.70;;
5167;SDS011;2603;48.918;8.980;2024-02-16T15:04:47;6.63;;;2.90;;
5167;SDS011;2603;48.918;8.980;2024-02-16T15:07:13;4.70;;;1.67;;
5167;SDS011;2603;48.918;8.980;2024-02-16T15:09:40;6.03;;;1.83;;